sensor_id;sensor_type;location;lat;lon;timestamp;pressure;altitude;pressure_sealevel;temperature;humidity
77147;BME280;66121;52.584;9.694;2023-05-13T00:01:54;101689.16;;;10.55;77.02
77147;BME280;66121;52.584;9.694;2023-05-13T00:04:19;101689.53;;;10.53;77.01
77147;BME280;66121;52.584;9.694;2023-05-13T00:06:44;101700.84;;;10.48;77.53
77147;BME280;66121;52.584;9.694;2023-05-13T00:09:10;101689.28;;;10.43;76.26
77147;BME280;66121;52.584;9.694;2023-05-13T00:11:35;101698.00;;;10.45;76.82
77147;BME280;66121;52.584;9.694;2023-05-13T00:14:01;101690.88;;;10.44;76.26
77147;BME280;66121;52.584;9.694;2023-05-13T00:16:26;101692.75;;;10.40;75.95
77147;BME280;66121;52.584;9.694;2023-05-13T00:18:53;101691.88;;;10.35;77.28
77147;BME280;66121;52.584;9.694;2023-05-13T00:21:18;101688.75;;;10.37;77.33
77147;BME280;66121;52.584;9.694;2023-05-13T00:23:44;101690.88;;;10.28;77.68
77147;BME280;66121;52.584;9.694;2023-05-13T00:26:09;101679.97;;;10.31;77.73
77147;BME280;66121;52.584;9.694;2023-05-13T00:28:34;101678.00;;;10.16;77.79
77147;BME280;66121;52.584;9.694;2023-05-13T00:31:00;101690.88;;;10.28;78.33
77147;BME280;66121;52.584;9.694;2023-05-13T00:33:25;101682.44;;;10.21;78.13
77147;BME280;66121;52.584;9.694;2023-05-13T00:35:50;101678.28;;;10.27;78.37
77147;BME280;66121;52.584;9.694;2023-05-13T00:38:16;101682.00;;;10.19;78.58
77147;BME280;66121;52.584;9.694;2023-05-13T00:40:42;101681.47;;;10.13;78.37
77147;BME280;66121;52.584;9.694;2023-05-13T00:43:08;101685.38;;;10.12;79.07
77147;BME280;66121;52.584;9.694;2023-05-13T00:45:36;101692.38;;;10.10;78.68
77147;BME280;66121;52.584;9.694;2023-05-13T00:48:04;101687.59;;;10.22;77.97
77147;BME280;66121;52.584;9.694;2023-05-13T00:50:30;101692.03;;;10.11;78.53
77147;BME280;66121;52.584;9.694;2023-05-13T00:52:56;101689.16;;;10.08;78.02
77147;BME280;66121;52.584;9.694;2023-05-13T00:55:22;101688.94;;;10.13;77.59
77147;BME280;66121;52.584;9.694;2023-05-13T00:57:48;101684.81;;;10.07;78.53
77147;BME280;66121;52.584;9.694;2023-05-13T01:00:13;101688.72;;;10.06;79.47
77147;BME280;66121;52.584;9.694;2023-05-13T01:02:49;101681.16;;;10.03;78.71
77147;BME280;66121;52.584;9.694;2023-05-13T01:05:48;101687.91;;;10.05;78.42
77147;BME280;66121;52.584;9.694;2023-05-13T01:08:25;101682.13;;;9.95;79.04
77147;BME280;66121;52.584;9.694;2023-05-13T01:10:57;101683.47;;;10.01;79.23
77147;BME280;66121;52.584;9.694;2023-05-13T01:13:23;101685.63;;;9.92;78.99
77147;BME280;66121;52.584;9.694;2023-05-13T01:15:56;101683.84;;;9.99;79.27
77147;BME280;66121;52.584;9.694;2023-05-13T01:18:32;101684.53;;;9.96;78.99
77147;BME280;66121;52.584;9.694;2023-05-13T01:21:00;101684.97;;;9.98;77.97
77147;BME280;66121;52.584;9.694;2023-05-13T01:23:25;101692.63;;;9.89;78.44
77147;BME280;66121;52.584;9.694;2023-05-13T01:25:50;101686.13;;;9.82;79.54
77147;BME280;66121;52.584;9.694;2023-05-13T01:28:16;101699.22;;;9.85;80.15
77147;BME280;66121;52.584;9.694;2023-05-13T01:30:41;101694.72;;;9.80;80.15
77147;BME280;66121;52.584;9.694;2023-05-13T01:33:06;101693.22;;;9.83;77.82
77147;BME280;66121;52.584;9.694;2023-05-13T01:35:32;101698.84;;;9.86;79.01
77147;BME280;66121;52.584;9.694;2023-05-13T01:37:59;101699.66;;;9.87;79.78
77147;BME280;66121;52.584;9.694;2023-05-13T01:40:26;101701.78;;;9.93;80.15
77147;BME280;66121;52.584;9.694;2023-05-13T01:42:52;101701.69;;;9.90;79.12
77147;BME280;66121;52.584;9.694;2023-05-13T01:45:18;101693.69;;;9.85;79.20
77147;BME280;66121;52.584;9.694;2023-05-13T01:47:43;101700.25;;;9.80;80.09
77147;BME280;66121;52.584;9.694;2023-05-13T01:50:08;101697.69;;;9.87;80.90
77147;BME280;66121;52.584;9.694;2023-05-13T01:52:34;101703.13;;;9.84;81.28
77147;BME280;66121;52.584;9.694;2023-05-13T01:54:59;101699.22;;;9.85;81.34
77147;BME280;66121;52.584;9.694;2023-05-13T01:57:25;101695.53;;;9.81;81.94
77147;BME280;66121;52.584;9.694;2023-05-13T01:59:50;101700.25;;;9.80;80.75
77147;BME280;66121;52.584;9.694;2023-05-13T02:02:17;101702.13;;;9.76;80.23
77147;BME280;66121;52.584;9.694;2023-05-13T02:04:42;101701.22;;;9.72;80.84
77147;BME280;66121;52.584;9.694;2023-05-13T02:07:07;101701.81;;;9.65;80.84
77147;BME280;66121;52.584;9.694;2023-05-13T02:09:32;101707.00;;;9.67;80.58
77147;BME280;66121;52.584;9.694;2023-05-13T02:11:58;101692.56;;;9.58;79.25
77147;BME280;66121;52.584;9.694;2023-05-13T02:14:24;101702.06;;;9.60;79.35
77147;BME280;66121;52.584;9.694;2023-05-13T02:16:50;101692.63;;;9.46;81.17
77147;BME280;66121;52.584;9.694;2023-05-13T02:19:15;101706.41;;;9.46;81.44
77147;BME280;66121;52.584;9.694;2023-05-13T02:21:40;101711.22;;;9.49;80.96
77147;BME280;66121;52.584;9.694;2023-05-13T02:24:07;101695.63;;;9.41;80.40
77147;BME280;66121;52.584;9.694;2023-05-13T02:26:33;101698.53;;;9.32;82.06
77147;BME280;66121;52.584;9.694;2023-05-13T02:28:58;101695.78;;;9.32;80.75
77147;BME280;66121;52.584;9.694;2023-05-13T02:31:23;101698.81;;;9.43;81.30
77147;BME280;66121;52.584;9.694;2023-05-13T02:33:49;101697.50;;;9.37;80.96
77147;BME280;66121;52.584;9.694;2023-05-13T02:36:14;101704.63;;;9.26;82.50
77147;BME280;66121;52.584;9.694;2023-05-13T02:38:40;101693.53;;;9.22;80.90
77147;BME280;66121;52.584;9.694;2023-05-13T02:41:05;101701.31;;;9.20;81.16
77147;BME280;66121;52.584;9.694;2023-05-13T02:43:30;101697.00;;;9.07;81.19
77147;BME280;66121;52.584;9.694;2023-05-13T02:45:56;101694.16;;;9.03;81.82
77147;BME280;66121;52.584;9.694;2023-05-13T02:48:21;101696.09;;;9.03;81.80
77147;BME280;66121;52.584;9.694;2023-05-13T02:50:46;101699.88;;;8.98;82.52
77147;BME280;66121;52.584;9.694;2023-05-13T02:53:11;101702.16;;;9.08;82.40
77147;BME280;66121;52.584;9.694;2023-05-13T02:55:37;101699.28;;;9.05;82.03
77147;BME280;66121;52.584;9.694;2023-05-13T02:58:02;101702.28;;;9.00;81.09
77147;BME280;66121;52.584;9.694;2023-05-13T03:00:28;101698.63;;;8.96;81.02
77147;BME280;66121;52.584;9.694;2023-05-13T03:02:53;101705.63;;;8.93;82.70
77147;BME280;66121;52.584;9.694;2023-05-13T03:05:19;101696.56;;;8.93;82.93
77147;BME280;66121;52.584;9.694;2023-05-13T03:07:44;101707.25;;;8.94;82.37
77147;BME280;66121;52.584;9.694;2023-05-13T03:10:10;101698.41;;;8.89;81.77
77147;BME280;66121;52.584;9.694;2023-05-13T03:12:35;101699.09;;;8.86;81.16
77147;BME280;66121;52.584;9.694;2023-05-13T03:15:00;101701.19;;;8.77;82.40
77147;BME280;66121;52.584;9.694;2023-05-13T03:17:26;101708.66;;;8.76;82.34
77147;BME280;66121;52.584;9.694;2023-05-13T03:19:54;101708.41;;;8.81;82.03
77147;BME280;66121;52.584;9.694;2023-05-13T03:22:20;101701.66;;;8.79;83.28
77147;BME280;66121;52.584;9.694;2023-05-13T03:24:45;101709.00;;;8.75;83.34
77147;BME280;66121;52.584;9.694;2023-05-13T03:27:10;101713.34;;;8.76;83.50
77147;BME280;66121;52.584;9.694;2023-05-13T03:29:36;101714.50;;;8.75;82.19
77147;BME280;66121;52.584;9.694;2023-05-13T03:32:02;101711.88;;;8.66;83.08
77147;BME280;66121;52.584;9.694;2023-05-13T03:34:27;101718.19;;;8.67;83.93
77147;BME280;66121;52.584;9.694;2023-05-13T03:36:52;101713.94;;;8.69;82.87
77147;BME280;66121;52.584;9.694;2023-05-13T03:39:18;101720.56;;;8.68;83.19
77147;BME280;66121;52.584;9.694;2023-05-13T03:41:43;101725.59;;;8.78;82.45
77147;BME280;66121;52.584;9.694;2023-05-13T03:44:09;101720.00;;;8.75;82.85
77147;BME280;66121;52.584;9.694;2023-05-13T03:46:35;101729.16;;;8.79;81.83
77147;BME280;66121;52.584;9.694;2023-05-13T03:49:00;101732.16;;;8.74;82.87
77147;BME280;66121;52.584;9.694;2023-05-13T03:51:25;101737.78;;;8.77;83.01
77147;BME280;66121;52.584;9.694;2023-05-13T03:53:50;101721.94;;;8.74;84.20
77147;BME280;66121;52.584;9.694;2023-05-13T03:56:16;101727.66;;;8.81;83.20
77147;BME280;66121;52.584;9.694;2023-05-13T03:58:41;101729.63;;;8.81;82.85
77147;BME280;66121;52.584;9.694;2023-05-13T04:01:07;101726.88;;;8.81;82.67
77147;BME280;66121;52.584;9.694;2023-05-13T04:03:33;101729.41;;;8.74;84.87
77147;BME280;66121;52.584;9.694;2023-05-13T04:05:58;101734.91;;;8.74;84.36
77147;BME280;66121;52.584;9.694;2023-05-13T04:08:24;101728.94;;;8.84;83.18
77147;BME280;66121;52.584;9.694;2023-05-13T04:10:49;101728.13;;;8.83;85.23
77147;BME280;66121;52.584;9.694;2023-05-13T04:13:15;101735.34;;;8.88;85.95
77147;BME280;66121;52.584;9.694;2023-05-13T04:15:40;101732.03;;;8.94;85.65
77147;BME280;66121;52.584;9.694;2023-05-13T04:18:05;101731.91;;;8.91;85.42
77147;BME280;66121;52.584;9.694;2023-05-13T04:20:31;101730.97;;;8.99;85.88
77147;BME280;66121;52.584;9.694;2023-05-13T04:22:56;101727.53;;;9.02;85.91
77147;BME280;66121;52.584;9.694;2023-05-13T04:25:21;101731.44;;;9.01;84.99
77147;BME280;66121;52.584;9.694;2023-05-13T04:27:46;101736.56;;;9.02;84.10
77147;BME280;66121;52.584;9.694;2023-05-13T04:30:12;101739.19;;;9.23;84.17
77147;BME280;66121;52.584;9.694;2023-05-13T04:32:38;101738.44;;;9.38;84.36
77147;BME280;66121;52.584;9.694;2023-05-13T04:35:05;101742.28;;;9.61;83.30
77147;BME280;66121;52.584;9.694;2023-05-13T04:37:31;101742.97;;;9.86;82.26
77147;BME280;66121;52.584;9.694;2023-05-13T04:39:56;101740.53;;;10.12;81.19
77147;BME280;66121;52.584;9.694;2023-05-13T04:42:21;101746.78;;;10.41;80.60
77147;BME280;66121;52.584;9.694;2023-05-13T04:44:47;101748.56;;;10.64;79.65
77147;BME280;66121;52.584;9.694;2023-05-13T04:47:12;101749.59;;;10.91;79.23
77147;BME280;66121;52.584;9.694;2023-05-13T04:49:37;101746.06;;;11.10;78.39
77147;BME280;66121;52.584;9.694;2023-05-13T04:52:03;101745.00;;;11.33;77.38
77147;BME280;66121;52.584;9.694;2023-05-13T04:54:29;101750.53;;;11.52;76.75
77147;BME280;66121;52.584;9.694;2023-05-13T04:56:54;101753.09;;;11.80;76.82
77147;BME280;66121;52.584;9.694;2023-05-13T04:59:20;101751.06;;;11.96;77.11
77147;BME280;66121;52.584;9.694;2023-05-13T05:01:45;101761.56;;;12.10;76.72
77147;BME280;66121;52.584;9.694;2023-05-13T05:04:11;101757.22;;;12.32;75.68
77147;BME280;66121;52.584;9.694;2023-05-13T05:06:36;101760.13;;;12.61;73.94
77147;BME280;66121;52.584;9.694;2023-05-13T05:09:02;101755.72;;;12.83;73.06
77147;BME280;66121;52.584;9.694;2023-05-13T05:11:27;101765.59;;;13.07;72.82
77147;BME280;66121;52.584;9.694;2023-05-13T05:13:53;101764.38;;;13.34;70.26
77147;BME280;66121;52.584;9.694;2023-05-13T05:16:18;101759.03;;;13.48;69.92
77147;BME280;66121;52.584;9.694;2023-05-13T05:18:43;101762.13;;;13.73;68.25
77147;BME280;66121;52.584;9.694;2023-05-13T05:21:09;101756.72;;;13.87;67.54
77147;BME280;66121;52.584;9.694;2023-05-13T05:23:34;101750.53;;;14.00;67.87
77147;BME280;66121;52.584;9.694;2023-05-13T05:26:00;101760.09;;;14.03;66.25
77147;BME280;66121;52.584;9.694;2023-05-13T05:28:26;101760.69;;;14.26;66.58
77147;BME280;66121;52.584;9.694;2023-05-13T05:30:51;101761.25;;;14.39;67.00
77147;BME280;66121;52.584;9.694;2023-05-13T05:33:17;101764.88;;;14.43;66.33
77147;BME280;66121;52.584;9.694;2023-05-13T05:35:43;101768.44;;;14.43;63.51
77147;BME280;66121;52.584;9.694;2023-05-13T05:38:09;101772.09;;;14.54;62.92
77147;BME280;66121;52.584;9.694;2023-05-13T05:40:39;101770.94;;;14.55;64.72
77147;BME280;66121;52.584;9.694;2023-05-13T05:43:04;101768.56;;;14.57;63.23
77147;BME280;66121;52.584;9.694;2023-05-13T05:45:30;101770.25;;;14.69;66.16
77147;BME280;66121;52.584;9.694;2023-05-13T05:47:55;101778.66;;;14.79;64.92
77147;BME280;66121;52.584;9.694;2023-05-13T05:50:22;101768.00;;;14.89;64.24
77147;BME280;66121;52.584;9.694;2023-05-13T05:52:47;101767.63;;;14.94;63.74
77147;BME280;66121;52.584;9.694;2023-05-13T05:55:13;101770.19;;;15.16;65.97
77147;BME280;66121;52.584;9.694;2023-05-13T05:57:38;101773.47;;;15.32;63.75
77147;BME280;66121;52.584;9.694;2023-05-13T06:00:04;101776.41;;;15.61;63.68
77147;BME280;66121;52.584;9.694;2023-05-13T06:02:29;101774.34;;;15.51;60.51
77147;BME280;66121;52.584;9.694;2023-05-13T06:04:55;101784.38;;;15.62;62.25
77147;BME280;66121;52.584;9.694;2023-05-13T06:07:20;101777.16;;;15.47;57.99
77147;BME280;66121;52.584;9.694;2023-05-13T06:09:45;101774.00;;;15.56;59.13
77147;BME280;66121;52.584;9.694;2023-05-13T06:12:10;101766.44;;;15.53;58.14
77147;BME280;66121;52.584;9.694;2023-05-13T06:14:36;101775.16;;;15.51;58.23
77147;BME280;66121;52.584;9.694;2023-05-13T06:17:02;101770.06;;;15.64;58.93
77147;BME280;66121;52.584;9.694;2023-05-13T06:19:27;101770.09;;;15.67;56.86
77147;BME280;66121;52.584;9.694;2023-05-13T06:21:53;101768.06;;;15.61;57.92
77147;BME280;66121;52.584;9.694;2023-05-13T06:24:18;101754.59;;;15.73;59.31
77147;BME280;66121;52.584;9.694;2023-05-13T06:26:44;101758.63;;;15.93;58.70
77147;BME280;66121;52.584;9.694;2023-05-13T06:29:09;101771.00;;;16.10;58.74
77147;BME280;66121;52.584;9.694;2023-05-13T06:31:35;101768.25;;;16.24;58.29
77147;BME280;66121;52.584;9.694;2023-05-13T06:34:00;101767.06;;;16.43;59.34
77147;BME280;66121;52.584;9.694;2023-05-13T06:36:25;101769.13;;;16.60;56.43
77147;BME280;66121;52.584;9.694;2023-05-13T06:38:52;101769.50;;;16.58;57.55
77147;BME280;66121;52.584;9.694;2023-05-13T06:41:17;101777.47;;;16.92;55.33
77147;BME280;66121;52.584;9.694;2023-05-13T06:43:43;101781.41;;;17.15;56.28
77147;BME280;66121;52.584;9.694;2023-05-13T06:46:10;101786.56;;;17.24;57.05
77147;BME280;66121;52.584;9.694;2023-05-13T06:48:35;101769.44;;;17.32;57.08
77147;BME280;66121;52.584;9.694;2023-05-13T06:51:00;101775.75;;;17.54;54.83
77147;BME280;66121;52.584;9.694;2023-05-13T06:53:26;101780.13;;;17.62;54.38
77147;BME280;66121;52.584;9.694;2023-05-13T06:55:51;101775.69;;;17.72;54.02
77147;BME280;66121;52.584;9.694;2023-05-13T06:58:16;101763.97;;;17.98;54.96
77147;BME280;66121;52.584;9.694;2023-05-13T07:00:42;101779.81;;;18.22;53.18
77147;BME280;66121;52.584;9.694;2023-05-13T07:03:07;101778.00;;;18.56;53.64
77147;BME280;66121;52.584;9.694;2023-05-13T07:05:33;101773.44;;;18.73;52.49
77147;BME280;66121;52.584;9.694;2023-05-13T07:07:59;101773.81;;;18.75;51.41
77147;BME280;66121;52.584;9.694;2023-05-13T07:10:25;101772.94;;;18.85;52.17
77147;BME280;66121;52.584;9.694;2023-05-13T07:12:51;101774.84;;;18.95;54.35
77147;BME280;66121;52.584;9.694;2023-05-13T07:15:16;101767.56;;;19.05;50.21
77147;BME280;66121;52.584;9.694;2023-05-13T07:17:41;101767.44;;;19.15;49.21
77147;BME280;66121;52.584;9.694;2023-05-13T07:20:08;101768.50;;;19.28;51.04
77147;BME280;66121;52.584;9.694;2023-05-13T07:22:34;101768.63;;;19.18;51.76
77147;BME280;66121;52.584;9.694;2023-05-13T07:24:59;101768.59;;;19.21;51.75
77147;BME280;66121;52.584;9.694;2023-05-13T07:27:25;101764.28;;;19.51;51.00
77147;BME280;66121;52.584;9.694;2023-05-13T07:29:50;101770.38;;;19.42;49.47
77147;BME280;66121;52.584;9.694;2023-05-13T07:32:16;101765.88;;;19.52;49.36
77147;BME280;66121;52.584;9.694;2023-05-13T07:34:41;101766.50;;;19.66;48.89
77147;BME280;66121;52.584;9.694;2023-05-13T07:37:06;101767.72;;;20.22;50.76
77147;BME280;66121;52.584;9.694;2023-05-13T07:39:32;101760.22;;;20.42;47.95
77147;BME280;66121;52.584;9.694;2023-05-13T07:41:57;101762.44;;;20.31;47.74
77147;BME280;66121;52.584;9.694;2023-05-13T07:44:22;101756.22;;;20.43;48.00
77147;BME280;66121;52.584;9.694;2023-05-13T07:46:48;101757.53;;;20.35;44.86
77147;BME280;66121;52.584;9.694;2023-05-13T07:49:15;101758.19;;;21.16;47.80
77147;BME280;66121;52.584;9.694;2023-05-13T07:51:40;101769.94;;;21.50;44.50
77147;BME280;66121;52.584;9.694;2023-05-13T07:54:06;101754.94;;;21.57;44.48
77147;BME280;66121;52.584;9.694;2023-05-13T07:56:31;101764.81;;;21.65;46.50
77147;BME280;66121;52.584;9.694;2023-05-13T07:58:57;101765.75;;;20.96;43.96
77147;BME280;66121;52.584;9.694;2023-05-13T08:01:22;101755.41;;;21.36;45.78
77147;BME280;66121;52.584;9.694;2023-05-13T08:03:47;101760.84;;;21.62;43.04
77147;BME280;66121;52.584;9.694;2023-05-13T08:06:12;101764.75;;;21.49;42.87
77147;BME280;66121;52.584;9.694;2023-05-13T08:08:38;101758.88;;;21.79;44.31
77147;BME280;66121;52.584;9.694;2023-05-13T08:11:03;101760.34;;;21.67;41.91
77147;BME280;66121;52.584;9.694;2023-05-13T08:13:28;101760.34;;;21.87;41.66
77147;BME280;66121;52.584;9.694;2023-05-13T08:15:54;101764.69;;;22.43;41.88
77147;BME280;66121;52.584;9.694;2023-05-13T08:18:19;101762.38;;;22.22;40.62
77147;BME280;66121;52.584;9.694;2023-05-13T08:20:44;101754.81;;;22.52;41.72
77147;BME280;66121;52.584;9.694;2023-05-13T08:23:10;101753.06;;;22.74;43.68
77147;BME280;66121;52.584;9.694;2023-05-13T08:25:35;101757.41;;;23.23;42.23
77147;BME280;66121;52.584;9.694;2023-05-13T08:28:01;101751.03;;;23.77;40.77
77147;BME280;66121;52.584;9.694;2023-05-13T08:30:27;101748.81;;;23.84;39.91
77147;BME280;66121;52.584;9.694;2023-05-13T08:32:53;101751.19;;;23.86;40.55
77147;BME280;66121;52.584;9.694;2023-05-13T08:35:18;101744.97;;;23.08;40.85
77147;BME280;66121;52.584;9.694;2023-05-13T08:37:44;101753.63;;;23.71;44.88
77147;BME280;66121;52.584;9.694;2023-05-13T08:40:10;101744.88;;;23.94;38.20
77147;BME280;66121;52.584;9.694;2023-05-13T08:42:37;101753.63;;;23.71;39.36
77147;BME280;66121;52.584;9.694;2023-05-13T08:45:04;101753.81;;;23.06;40.38
77147;BME280;66121;52.584;9.694;2023-05-13T08:47:54;101763.31;;;23.13;39.40
77147;BME280;66121;52.584;9.694;2023-05-13T08:50:20;101760.66;;;23.22;41.58
77147;BME280;66121;52.584;9.694;2023-05-13T08:52:46;101756.31;;;23.33;39.85
77147;BME280;66121;52.584;9.694;2023-05-13T08:55:12;101754.00;;;23.73;39.00
77147;BME280;66121;52.584;9.694;2023-05-13T08:57:37;101754.91;;;23.83;40.37
77147;BME280;66121;52.584;9.694;2023-05-13T09:00:03;101760.94;;;24.10;39.11
77147;BME280;66121;52.584;9.694;2023-05-13T09:02:29;101769.63;;;23.74;37.60
77147;BME280;66121;52.584;9.694;2023-05-13T09:04:59;101764.00;;;23.74;36.40
77147;BME280;66121;52.584;9.694;2023-05-13T09:07:29;101755.66;;;23.58;36.61
77147;BME280;66121;52.584;9.694;2023-05-13T09:09:55;101761.38;;;23.54;39.02
77147;BME280;66121;52.584;9.694;2023-05-13T09:12:46;101759.66;;;23.44;38.43
77147;BME280;66121;52.584;9.694;2023-05-13T09:15:23;101766.78;;;23.33;39.27
77147;BME280;66121;52.584;9.694;2023-05-13T09:17:51;101767.16;;;22.90;37.93
77147;BME280;66121;52.584;9.694;2023-05-13T09:20:18;101767.63;;;23.46;37.95
77147;BME280;66121;52.584;9.694;2023-05-13T09:22:46;101766.63;;;23.94;39.09
77147;BME280;66121;52.584;9.694;2023-05-13T09:25:13;101764.88;;;24.12;39.45
77147;BME280;66121;52.584;9.694;2023-05-13T09:27:40;101754.16;;;24.32;38.77
77147;BME280;66121;52.584;9.694;2023-05-13T09:30:06;101756.28;;;24.54;37.41
77147;BME280;66121;52.584;9.694;2023-05-13T09:32:32;101754.16;;;24.07;36.13
77147;BME280;66121;52.584;9.694;2023-05-13T09:35:07;101763.44;;;24.20;36.55
77147;BME280;66121;52.584;9.694;2023-05-13T09:37:33;101759.09;;;23.91;36.40
77147;BME280;66121;52.584;9.694;2023-05-13T09:39:59;101765.63;;;24.63;35.73
77147;BME280;66121;52.584;9.694;2023-05-13T09:42:24;101757.28;;;24.72;37.44
77147;BME280;66121;52.584;9.694;2023-05-13T09:44:49;101761.44;;;25.71;41.84
77147;BME280;66121;52.584;9.694;2023-05-13T09:47:15;101754.56;;;25.81;38.17
77147;BME280;66121;52.584;9.694;2023-05-13T09:49:42;101759.66;;;25.64;33.95
77147;BME280;66121;52.584;9.694;2023-05-13T09:52:08;101747.88;;;25.44;35.96
77147;BME280;66121;52.584;9.694;2023-05-13T09:54:38;101761.63;;;25.33;37.15
77147;BME280;66121;52.584;9.694;2023-05-13T09:57:04;101753.00;;;25.36;33.69
77147;BME280;66121;52.584;9.694;2023-05-13T09:59:33;101756.81;;;25.42;34.55
77147;BME280;66121;52.584;9.694;2023-05-13T10:02:04;101754.13;;;25.60;36.21
77147;BME280;66121;52.584;9.694;2023-05-13T10:04:30;101760.97;;;24.94;34.49
77147;BME280;66121;52.584;9.694;2023-05-13T10:07:01;101759.56;;;25.33;33.82
77147;BME280;66121;52.584;9.694;2023-05-13T10:09:29;101761.53;;;25.89;36.38
77147;BME280;66121;52.584;9.694;2023-05-13T10:11:58;101765.25;;;25.77;33.93
77147;BME280;66121;52.584;9.694;2023-05-13T10:14:25;101764.34;;;25.24;33.72
77147;BME280;66121;52.584;9.694;2023-05-13T10:16:52;101756.41;;;24.63;33.64
77147;BME280;66121;52.584;9.694;2023-05-13T10:19:18;101754.34;;;24.51;35.22
77147;BME280;66121;52.584;9.694;2023-05-13T10:21:44;101752.53;;;24.69;34.02
77147;BME280;66121;52.584;9.694;2023-05-13T10:24:09;101762.63;;;24.45;36.61
77147;BME280;66121;52.584;9.694;2023-05-13T10:26:36;101765.13;;;24.18;33.62
77147;BME280;66121;52.584;9.694;2023-05-13T10:29:02;101766.78;;;24.41;34.72
77147;BME280;66121;52.584;9.694;2023-05-13T10:31:28;101763.28;;;24.62;34.83
77147;BME280;66121;52.584;9.694;2023-05-13T10:33:53;101767.50;;;25.04;34.21
77147;BME280;66121;52.584;9.694;2023-05-13T10:36:39;101752.66;;;24.78;33.95
77147;BME280;66121;52.584;9.694;2023-05-13T10:39:33;101764.59;;;26.03;34.97
77147;BME280;66121;52.584;9.694;2023-05-13T10:44:53;101747.00;;;25.47;32.46
77147;BME280;66121;52.584;9.694;2023-05-13T10:47:19;101757.72;;;24.83;33.35
77147;BME280;66121;52.584;9.694;2023-05-13T10:49:51;101748.25;;;24.77;33.20
77147;BME280;66121;52.584;9.694;2023-05-13T10:52:17;101742.31;;;25.53;36.81
77147;BME280;66121;52.584;9.694;2023-05-13T10:54:42;101739.34;;;25.01;31.58
77147;BME280;66121;52.584;9.694;2023-05-13T10:57:08;101747.09;;;24.75;32.66
77147;BME280;66121;52.584;9.694;2023-05-13T10:59:34;101743.41;;;24.78;32.22
77147;BME280;66121;52.584;9.694;2023-05-13T11:02:02;101754.75;;;25.43;31.76
77147;BME280;66121;52.584;9.694;2023-05-13T11:04:57;101748.22;;;24.90;30.46
77147;BME280;66121;52.584;9.694;2023-05-13T11:07:23;101738.81;;;24.08;31.72
77147;BME280;66121;52.584;9.694;2023-05-13T11:09:48;101742.19;;;24.28;32.54
77147;BME280;66121;52.584;9.694;2023-05-13T11:12:16;101747.00;;;25.47;31.66
77147;BME280;66121;52.584;9.694;2023-05-13T11:14:42;101740.06;;;24.45;33.07
77147;BME280;66121;52.584;9.694;2023-05-13T11:17:09;101734.75;;;24.94;35.73
77147;BME280;66121;52.584;9.694;2023-05-13T11:19:46;101739.59;;;25.28;31.26
77147;BME280;66121;52.584;9.694;2023-05-13T11:22:13;101735.78;;;25.22;32.23
77147;BME280;66121;52.584;9.694;2023-05-13T11:24:39;101737.97;;;25.61;32.16
77147;BME280;66121;52.584;9.694;2023-05-13T11:27:37;101738.66;;;25.31;32.65
77147;BME280;66121;52.584;9.694;2023-05-13T11:30:24;101737.91;;;24.37;32.24
77147;BME280;66121;52.584;9.694;2023-05-13T11:35:27;101728.69;;;25.17;34.27
77147;BME280;66121;52.584;9.694;2023-05-13T11:37:54;101735.16;;;25.92;34.68
77147;BME280;66121;52.584;9.694;2023-05-13T11:40:31;101739.00;;;25.76;33.88
77147;BME280;66121;52.584;9.694;2023-05-13T11:42:57;101734.78;;;26.60;34.65
77147;BME280;66121;52.584;9.694;2023-05-13T11:45:23;101725.97;;;25.79;28.70
77147;BME280;66121;52.584;9.694;2023-05-13T11:47:49;101727.63;;;26.29;29.87
77147;BME280;66121;52.584;9.694;2023-05-13T11:50:25;101727.28;;;26.75;29.05
77147;BME280;66121;52.584;9.694;2023-05-13T11:52:53;101735.66;;;27.06;33.60
77147;BME280;66121;52.584;9.694;2023-05-13T11:55:30;101730.78;;;26.89;30.39
77147;BME280;66121;52.584;9.694;2023-05-13T11:57:56;101720.56;;;27.55;29.78
77147;BME280;66121;52.584;9.694;2023-05-13T12:00:26;101719.59;;;27.48;29.27
77147;BME280;66121;52.584;9.694;2023-05-13T12:02:52;101715.50;;;26.86;27.73
77147;BME280;66121;52.584;9.694;2023-05-13T12:05:17;101727.94;;;26.79;29.63
77147;BME280;66121;52.584;9.694;2023-05-13T12:07:43;101726.78;;;26.50;30.73
77147;BME280;66121;52.584;9.694;2023-05-13T12:10:08;101713.91;;;25.35;28.43
77147;BME280;66121;52.584;9.694;2023-05-13T12:12:37;101718.66;;;24.82;31.73
77147;BME280;66121;52.584;9.694;2023-05-13T12:15:05;101706.94;;;25.05;31.03
77147;BME280;66121;52.584;9.694;2023-05-13T12:17:31;101715.88;;;24.44;32.97
77147;BME280;66121;52.584;9.694;2023-05-13T12:22:33;101717.41;;;23.57;33.34
77147;BME280;66121;52.584;9.694;2023-05-13T12:24:59;101727.53;;;23.13;33.55
77147;BME280;66121;52.584;9.694;2023-05-13T12:27:27;101718.75;;;22.95;37.10
77147;BME280;66121;52.584;9.694;2023-05-13T12:29:55;101729.97;;;22.66;34.53
77147;BME280;66121;52.584;9.694;2023-05-13T12:32:23;101734.59;;;23.75;34.26
77147;BME280;66121;52.584;9.694;2023-05-13T12:34:50;101721.22;;;24.76;32.09
77147;BME280;66121;52.584;9.694;2023-05-13T12:37:15;101716.78;;;25.66;28.97
77147;BME280;66121;52.584;9.694;2023-05-13T12:39:42;101711.94;;;26.37;28.15
77147;BME280;66121;52.584;9.694;2023-05-13T12:42:15;101709.25;;;26.24;28.50
77147;BME280;66121;52.584;9.694;2023-05-13T12:44:43;101712.69;;;24.80;27.86
77147;BME280;66121;52.584;9.694;2023-05-13T12:47:09;101718.94;;;23.87;30.80
77147;BME280;66121;52.584;9.694;2023-05-13T12:49:49;101720.84;;;23.07;32.32
77147;BME280;66121;52.584;9.694;2023-05-13T12:52:15;101727.66;;;22.45;33.98
77147;BME280;66121;52.584;9.694;2023-05-13T12:54:41;101725.44;;;22.04;32.79
77147;BME280;66121;52.584;9.694;2023-05-13T12:57:09;101724.50;;;22.11;35.79
77147;BME280;66121;52.584;9.694;2023-05-13T12:59:34;101714.97;;;23.30;33.05